createdAt,value
2023-01-03T12:36:16.259Z,65.13
2023-01-03T12:38:48.567Z,61.80
2023-01-03T12:41:28.111Z,60.78
2023-01-03T12:44:07.387Z,67.57
2023-01-03T12:46:41.991Z,61.75
2023-01-03T12:49:24.102Z,53.97
2023-01-03T12:51:51.062Z,78.72
2023-01-03T12:54:27.633Z,68.90
2023-01-03T12:57:24.633Z,67.43
2023-01-03T13:00:06.181Z,85.25
2023-01-03T13:02:50.209Z,57.00
2023-01-03T13:05:17.069Z,65.78
2023-01-03T13:08:17.057Z,51.15
2023-01-03T13:10:48.660Z,69.45
2023-01-03T13:13:18.935Z,59.45
2023-01-03T13:15:46.815Z,58.03
2023-01-03T13:18:17.284Z,78.10
2023-01-03T13:20:49.977Z,77.38
2023-01-03T13:23:41.417Z,60.92
2023-01-03T13:26:19.322Z,54.53
2023-01-03T13:28:46.437Z,60.75
2023-01-03T13:31:19.313Z,63.55
2023-01-03T13:33:52.140Z,73.25
2023-01-03T13:36:19.579Z,52.05
2023-01-03T13:38:46.563Z,52.13
2023-01-03T13:41:39.004Z,55.72
2023-01-03T13:44:22.207Z,68.65
2023-01-03T13:46:50.350Z,59.08
2023-01-03T13:49:26.606Z,54.85
2023-01-03T13:51:56.606Z,60.78
2023-01-03T13:54:33.729Z,49.70
2023-01-03T13:57:07.926Z,55.92
2023-01-03T13:59:42.713Z,51.28
2023-01-03T14:02:09.724Z,57.00
2023-01-03T14:05:10.412Z,49.90
2023-01-03T14:07:55.160Z,58.63
2023-01-03T14:10:43.483Z,48.28
2023-01-03T14:13:35.879Z,48.45
2023-01-03T14:16:30.716Z,57.25
2023-01-03T14:19:24.148Z,45.83
2023-01-03T14:22:21.079Z,59.10
2023-01-03T14:24:52.651Z,47.50
2023-01-03T14:27:23.196Z,57.28
2023-01-03T14:29:54.702Z,55.92
2023-01-03T14:32:34.898Z,65.03
2023-01-03T14:35:03.092Z,54.13
2023-01-03T14:37:33.093Z,56.35
2023-01-03T14:40:08.699Z,53.50
2023-01-03T14:42:35.583Z,54.90
2023-01-03T14:45:06.074Z,49.70
2023-01-03T14:47:33.204Z,55.63
2023-01-03T14:50:00.442Z,59.33
2023-01-03T14:52:27.256Z,45.50
2023-01-03T14:55:01.632Z,45.50
2023-01-03T14:57:30.800Z,60.65
2023-01-03T15:00:00.264Z,56.33
2023-01-03T15:02:33.637Z,61.08
2023-01-03T15:05:02.721Z,53.50
2023-01-03T15:07:33.834Z,61.88
2023-01-03T15:10:13.077Z,45.47
2023-01-03T15:12:44.492Z,53.88
2023-01-03T15:15:23.584Z,62.83
2023-01-03T15:17:53.937Z,54.67
2023-01-03T15:20:35.020Z,45.03
2023-01-03T15:23:02.813Z,59.95
2023-01-03T15:25:39.112Z,47.28
2023-01-03T15:28:35.684Z,47.80
2023-01-03T15:31:23.778Z,45.58
2023-01-03T15:34:17.944Z,51.92
2023-01-03T15:36:55.319Z,50.10
2023-01-03T15:39:28.402Z,45.28
2023-01-03T15:45:11.083Z,45.10
2023-01-03T15:47:38.037Z,52.65
2023-01-03T15:50:06.837Z,55.15
2023-01-03T15:52:33.835Z,69.97
2023-01-03T15:55:00.605Z,50.40
2023-01-03T15:57:30.317Z,57.85
2023-01-03T16:00:01.850Z,54.80
2023-01-03T16:02:32.318Z,46.88
2023-01-03T16:04:59.303Z,58.42
2023-01-03T16:07:26.434Z,55.65
2023-01-03T16:09:53.348Z,57.65
2023-01-03T16:12:24.989Z,58.17
2023-01-03T16:14:55.479Z,56.05
2023-01-03T16:17:25.828Z,55.80
2023-01-03T16:19:53.425Z,64.07
2023-01-03T16:22:34.467Z,48.58
2023-01-03T16:25:02.366Z,55.72
2023-01-03T16:27:29.166Z,48.15
2023-01-03T16:29:56.071Z,75.25
2023-01-03T16:32:27.458Z,64.03
2023-01-03T16:35:03.132Z,50.05
2023-01-03T16:37:30.154Z,46.10
2023-01-03T16:39:58.571Z,58.63
2023-01-03T16:42:28.674Z,51.42
2023-01-03T16:44:55.761Z,46.50
2023-01-03T16:47:23.466Z,46.40
2023-01-03T16:49:57.739Z,48.88
2023-01-03T16:52:37.622Z,55.83
2023-01-03T16:55:19.988Z,46.40
2023-01-03T16:57:53.593Z,50.63
2023-01-03T17:00:24.101Z,49.03
2023-01-03T17:02:51.137Z,57.17
2023-01-03T17:05:21.079Z,51.38
2023-01-03T17:07:50.922Z,54.88
2023-01-03T17:10:28.019Z,50.90
2023-01-03T17:12:55.772Z,52.22
2023-01-03T17:15:22.657Z,55.83
2023-01-03T17:17:49.521Z,64.25
2023-01-03T17:20:18.373Z,65.28
2023-01-03T17:22:56.307Z,54.33
2023-01-03T17:25:23.662Z,50.38
2023-01-03T17:27:54.814Z,59.42
2023-01-03T17:30:25.107Z,54.20
2023-01-03T17:32:52.039Z,64.72
2023-01-03T17:35:21.675Z,59.05
2023-01-03T17:40:44.617Z,65.35
2023-01-03T17:43:22.284Z,57.65
2023-01-03T17:46:10.622Z,72.43
2023-01-03T17:48:55.838Z,69.32
2023-01-03T17:51:23.168Z,65.80
2023-01-03T17:53:51.068Z,60.55
2023-01-03T17:56:19.247Z,56.40
2023-01-03T17:58:55.672Z,57.72
2023-01-03T18:01:23.517Z,52.10
2023-01-03T18:03:50.783Z,56.60
2023-01-03T18:06:25.861Z,68.50
2023-01-03T18:08:53.371Z,67.95
2023-01-03T18:11:22.781Z,67.68
2023-01-03T18:13:49.853Z,59.10
2023-01-03T18:16:20.023Z,60.30
2023-01-03T18:18:47.632Z,62.80
2023-01-03T18:21:19.275Z,75.13
2023-01-03T18:23:46.424Z,73.05
2023-01-03T18:26:16.223Z,65.00
2023-01-03T18:28:43.556Z,64.25
2023-01-03T18:31:15.733Z,62.88
2023-01-03T18:33:43.008Z,61.72
2023-01-03T18:36:28.097Z,62.85
2023-01-03T18:39:04.349Z,60.25
2023-01-03T18:41:33.948Z,65.65
2023-01-03T18:44:01.040Z,54.42
2023-01-03T18:46:28.871Z,62.97
2023-01-03T18:48:56.227Z,55.33
2023-01-03T18:51:27.284Z,61.58
2023-01-03T18:53:57.777Z,60.65
2023-01-03T18:56:28.441Z,72.68
2023-01-03T18:59:02.252Z,64.38
2023-01-03T19:01:29.911Z,59.88
2023-01-03T19:03:58.404Z,71.10
2023-01-03T19:06:30.436Z,68.13
2023-01-03T19:09:02.899Z,66.13
2023-01-03T19:11:39.923Z,66.80
2023-01-03T19:14:07.503Z,68.13
2023-01-03T19:16:37.233Z,67.00
2023-01-03T19:19:05.249Z,70.18
2023-01-03T19:21:35.511Z,78.63
2023-01-03T19:24:14.054Z,71.20
2023-01-03T19:26:46.812Z,63.85
2023-01-03T19:29:26.205Z,58.13
2023-01-03T19:31:55.976Z,67.43
2023-01-03T19:34:25.189Z,62.60
2023-01-03T19:36:52.466Z,62.38
2023-01-03T19:39:24.707Z,73.40
2023-01-03T19:42:14.472Z,61.55
2023-01-03T19:44:42.060Z,66.85
2023-01-03T19:47:14.592Z,67.50
2023-01-03T19:49:42.257Z,58.75
2023-01-03T19:52:09.181Z,58.47
2023-01-03T19:54:35.964Z,67.63
2023-01-03T19:57:02.905Z,70.30
2023-01-03T19:59:38.165Z,65.13
2023-01-03T20:02:26.456Z,65.20
2023-01-03T20:04:53.535Z,67.03
2023-01-03T20:07:20.535Z,60.08
2023-01-03T20:09:47.334Z,63.05
2023-01-03T20:12:15.452Z,65.53
2023-01-03T20:14:47.075Z,66.15
2023-01-03T20:17:25.456Z,66.70
2023-01-03T20:19:52.811Z,65.50
2023-01-03T20:23:02.628Z,61.55
2023-01-03T20:25:27.517Z,64.03
2023-01-03T20:27:55.258Z,69.88
2023-01-03T20:30:24.128Z,71.45
2023-01-03T20:32:51.234Z,66.38
2023-01-03T20:38:11.017Z,59.72
2023-01-03T20:40:38.111Z,60.05
2023-01-03T20:43:05.575Z,67.57
2023-01-03T20:45:32.859Z,65.97
2023-01-03T20:48:00.952Z,57.35
2023-01-03T20:50:29.229Z,66.93
2023-01-03T20:52:57.411Z,58.30
2023-01-03T20:55:26.676Z,59.80
2023-01-03T20:57:53.615Z,49.80
2023-01-03T21:00:32.549Z,51.35
2023-01-03T21:02:59.622Z,53.95
2023-01-03T21:05:26.815Z,50.08
2023-01-03T21:08:12.187Z,55.92
2023-01-03T21:10:41.880Z,53.03
2023-01-03T21:13:10.001Z,57.47
2023-01-03T21:15:38.041Z,52.97
2023-01-03T21:18:06.143Z,56.50
2023-01-03T21:20:33.678Z,57.95
2023-01-03T21:23:00.901Z,46.33
2023-01-03T21:25:38.485Z,52.05
2023-01-03T21:28:05.452Z,51.28
2023-01-03T21:30:32.832Z,49.22
2023-01-03T21:32:59.787Z,48.15
2023-01-03T21:35:26.815Z,50.22
2023-01-03T21:37:54.684Z,69.57
2023-01-03T21:40:25.165Z,67.20
2023-01-03T21:43:04.099Z,53.67
2023-01-03T21:45:48.926Z,60.72
2023-01-03T21:48:18.118Z,46.70
2023-01-03T21:50:47.321Z,46.13
2023-01-03T21:53:15.744Z,47.25
2023-01-03T21:55:42.716Z,48.50
2023-01-03T21:58:13.652Z,52.28
2023-01-03T22:00:40.878Z,60.85
2023-01-03T22:03:29.638Z,60.90
2023-01-03T22:06:13.856Z,46.55
2023-01-03T22:08:41.233Z,49.08
2023-01-03T22:11:08.299Z,59.80
2023-01-03T22:13:38.290Z,54.40
2023-01-03T22:16:07.537Z,40.92
2023-01-03T22:18:35.375Z,38.17
2023-01-03T22:21:07.832Z,46.38
2023-01-03T22:23:38.465Z,49.70
2023-01-03T22:26:12.149Z,37.63
2023-01-03T22:28:42.064Z,55.00
2023-01-03T22:31:16.229Z,49.20
2023-01-03T22:33:44.666Z,45.40
2023-01-03T22:36:11.989Z,46.65
2023-01-03T22:38:39.613Z,51.83
2023-01-03T22:41:10.322Z,42.03
2023-01-03T22:43:37.155Z,46.25
2023-01-03T22:46:12.754Z,43.70
2023-01-03T22:48:40.489Z,41.42
2023-01-03T22:51:10.467Z,55.38
2023-01-03T22:53:39.566Z,47.15
2023-01-03T22:56:08.630Z,55.92
2023-01-03T22:58:36.987Z,45.30
2023-01-03T23:01:14.920Z,43.28
2023-01-03T23:03:43.011Z,54.85
2023-01-03T23:06:14.143Z,58.15
2023-01-03T23:08:42.239Z,50.38
2023-01-03T23:11:33.957Z,60.55
2023-01-03T23:14:03.287Z,98.40
2023-01-03T23:16:32.152Z,100.95
2023-01-03T23:19:01.991Z,110.05
2023-01-03T23:21:28.816Z,185.52
2023-01-03T23:23:55.778Z,125.90
2023-01-03T23:26:22.890Z,115.68
2023-01-03T23:28:49.878Z,90.55
2023-01-03T23:31:16.801Z,66.43
2023-01-03T23:33:43.679Z,50.65
2023-01-03T23:36:13.195Z,52.58
2023-01-03T23:38:40.004Z,50.13
2023-01-03T23:41:09.347Z,79.00
2023-01-03T23:43:37.496Z,83.00
2023-01-03T23:46:05.931Z,100.07
2023-01-03T23:48:32.971Z,70.07
2023-01-03T23:51:05.093Z,72.30
2023-01-03T23:53:35.528Z,59.10
2023-01-03T23:56:07.144Z,55.22
2023-01-03T23:58:34.917Z,58.78
